sensor_id;sensor_type;location;lat;lon;timestamp;temperature;humidity
418;DHT22;49;48.530;9.200;2023-02-01T00:01:06;9.50;50.10
418;DHT22;49;48.530;9.200;2023-02-01T00:03:39;9.70;52.20
418;DHT22;49;48.530;9.200;2023-02-01T00:06:11;9.80;48.80
418;DHT22;49;48.530;9.200;2023-02-01T00:08:41;10.00;50.10
418;DHT22;49;48.530;9.200;2023-02-01T00:11:12;10.00;45.90
418;DHT22;49;48.530;9.200;2023-02-01T00:13:42;9.60;47.70
418;DHT22;49;48.530;9.200;2023-02-01T00:16:15;9.10;53.90
418;DHT22;49;48.530;9.200;2023-02-01T00:18:50;9.80;50.30
418;DHT22;49;48.530;9.200;2023-02-01T00:21:24;10.20;47.80
418;DHT22;49;48.530;9.200;2023-02-01T00:23:58;10.20;45.30
418;DHT22;49;48.530;9.200;2023-02-01T00:26:31;10.50;45.70
418;DHT22;49;48.530;9.200;2023-02-01T00:29:15;10.60;44.10
418;DHT22;49;48.530;9.200;2023-02-01T00:31:58;10.60;42.70
418;DHT22;49;48.530;9.200;2023-02-01T00:34:38;11.10;43.70
418;DHT22;49;48.530;9.200;2023-02-01T00:37:14;11.00;42.60
418;DHT22;49;48.530;9.200;2023-02-01T00:39:50;10.80;39.90
418;DHT22;49;48.530;9.200;2023-02-01T00:42:21;10.70;40.70
418;DHT22;49;48.530;9.200;2023-02-01T00:44:55;10.60;44.00
418;DHT22;49;48.530;9.200;2023-02-01T00:47:25;10.50;42.30
418;DHT22;49;48.530;9.200;2023-02-01T00:49:57;10.60;42.30
418;DHT22;49;48.530;9.200;2023-02-01T00:52:28;10.60;43.00
418;DHT22;49;48.530;9.200;2023-02-01T00:55:08;10.80;42.30
418;DHT22;49;48.530;9.200;2023-02-01T00:57:44;10.70;43.50
418;DHT22;49;48.530;9.200;2023-02-01T01:00:17;10.90;43.20
418;DHT22;49;48.530;9.200;2023-02-01T01:03:00;10.80;42.90
418;DHT22;49;48.530;9.200;2023-02-01T01:05:43;11.20;41.10
418;DHT22;49;48.530;9.200;2023-02-01T01:08:16;11.10;40.80
418;DHT22;49;48.530;9.200;2023-02-01T01:10:46;10.50;42.10
418;DHT22;49;48.530;9.200;2023-02-01T01:13:15;10.30;43.00
418;DHT22;49;48.530;9.200;2023-02-01T01:15:45;10.70;45.30
418;DHT22;49;48.530;9.200;2023-02-01T01:18:14;10.70;41.80
418;DHT22;49;48.530;9.200;2023-02-01T01:20:44;10.60;41.40
418;DHT22;49;48.530;9.200;2023-02-01T01:23:26;11.00;43.10
418;DHT22;49;48.530;9.200;2023-02-01T01:25:59;11.00;41.70
418;DHT22;49;48.530;9.200;2023-02-01T01:28:28;11.10;41.90
418;DHT22;49;48.530;9.200;2023-02-01T01:30:55;11.10;40.90
418;DHT22;49;48.530;9.200;2023-02-01T01:33:29;10.70;41.20
418;DHT22;49;48.530;9.200;2023-02-01T01:35:58;10.50;42.60
418;DHT22;49;48.530;9.200;2023-02-01T01:38:27;9.90;48.10
418;DHT22;49;48.530;9.200;2023-02-01T01:40:58;9.40;50.00
418;DHT22;49;48.530;9.200;2023-02-01T01:43:51;9.70;54.00
418;DHT22;49;48.530;9.200;2023-02-01T01:46:22;10.00;49.60
418;DHT22;49;48.530;9.200;2023-02-01T01:48:55;9.70;50.90
418;DHT22;49;48.530;9.200;2023-02-01T01:51:31;9.70;51.10
418;DHT22;49;48.530;9.200;2023-02-01T01:54:21;9.90;50.40
418;DHT22;49;48.530;9.200;2023-02-01T01:56:58;10.10;48.70
418;DHT22;49;48.530;9.200;2023-02-01T01:59:34;10.40;48.50
418;DHT22;49;48.530;9.200;2023-02-01T02:02:06;10.60;45.40
418;DHT22;49;48.530;9.200;2023-02-01T02:04:42;10.40;45.50
418;DHT22;49;48.530;9.200;2023-02-01T02:07:13;10.20;45.90
418;DHT22;49;48.530;9.200;2023-02-01T02:09:57;10.00;48.40
418;DHT22;49;48.530;9.200;2023-02-01T02:12:29;10.30;48.20
418;DHT22;49;48.530;9.200;2023-02-01T02:15:01;10.20;49.60
418;DHT22;49;48.530;9.200;2023-02-01T02:17:41;10.20;48.10
418;DHT22;49;48.530;9.200;2023-02-01T02:26:52;10.60;45.10
418;DHT22;49;48.530;9.200;2023-02-01T02:29:52;10.30;45.70
418;DHT22;49;48.530;9.200;2023-02-01T02:32:56;10.00;49.50
418;DHT22;49;48.530;9.200;2023-02-01T02:35:46;10.20;48.40
418;DHT22;49;48.530;9.200;2023-02-01T02:38:36;10.40;47.90
418;DHT22;49;48.530;9.200;2023-02-01T02:41:19;10.60;44.40
418;DHT22;49;48.530;9.200;2023-02-01T02:46:38;10.70;43.20
418;DHT22;49;48.530;9.200;2023-02-01T02:49:33;10.90;43.40
418;DHT22;49;48.530;9.200;2023-02-01T02:52:13;10.70;43.20
418;DHT22;49;48.530;9.200;2023-02-01T02:55:03;11.00;42.00
418;DHT22;49;48.530;9.200;2023-02-01T02:57:44;10.70;44.70
418;DHT22;49;48.530;9.200;2023-02-01T03:00:36;10.70;44.20
418;DHT22;49;48.530;9.200;2023-02-01T03:03:23;10.80;43.30
418;DHT22;49;48.530;9.200;2023-02-01T03:06:13;10.70;44.10
418;DHT22;49;48.530;9.200;2023-02-01T03:08:58;10.80;43.80
418;DHT22;49;48.530;9.200;2023-02-01T03:11:32;10.40;47.50
418;DHT22;49;48.530;9.200;2023-02-01T03:14:17;10.40;47.80
418;DHT22;49;48.530;9.200;2023-02-01T03:16:53;10.80;45.00
418;DHT22;49;48.530;9.200;2023-02-01T03:19:30;10.90;44.70
418;DHT22;49;48.530;9.200;2023-02-01T03:22:02;11.00;42.70
418;DHT22;49;48.530;9.200;2023-02-01T03:24:44;11.10;43.30
418;DHT22;49;48.530;9.200;2023-02-01T03:27:21;11.10;42.90
418;DHT22;49;48.530;9.200;2023-02-01T03:29:52;10.70;43.20
418;DHT22;49;48.530;9.200;2023-02-01T03:32:24;10.40;46.80
418;DHT22;49;48.530;9.200;2023-02-01T03:34:53;10.20;48.80
418;DHT22;49;48.530;9.200;2023-02-01T03:37:25;9.90;50.40
418;DHT22;49;48.530;9.200;2023-02-01T03:39:59;9.40;56.40
418;DHT22;49;48.530;9.200;2023-02-01T03:42:31;9.50;56.70
418;DHT22;49;48.530;9.200;2023-02-01T03:45:09;9.40;58.90
418;DHT22;49;48.530;9.200;2023-02-01T03:47:40;9.10;58.40
418;DHT22;49;48.530;9.200;2023-02-01T03:50:12;9.10;62.30
418;DHT22;49;48.530;9.200;2023-02-01T03:52:46;9.00;59.80
418;DHT22;49;48.530;9.200;2023-02-01T03:55:20;8.90;63.10
418;DHT22;49;48.530;9.200;2023-02-01T03:57:52;9.10;60.20
418;DHT22;49;48.530;9.200;2023-02-01T04:00:26;8.90;61.30
418;DHT22;49;48.530;9.200;2023-02-01T04:02:54;9.00;60.60
418;DHT22;49;48.530;9.200;2023-02-01T04:05:23;8.80;65.20
418;DHT22;49;48.530;9.200;2023-02-01T04:07:56;9.00;62.30
418;DHT22;49;48.530;9.200;2023-02-01T04:10:27;9.20;61.70
418;DHT22;49;48.530;9.200;2023-02-01T04:12:56;9.40;59.60
418;DHT22;49;48.530;9.200;2023-02-01T04:15:25;9.00;63.20
418;DHT22;49;48.530;9.200;2023-02-01T04:17:53;8.80;63.00
418;DHT22;49;48.530;9.200;2023-02-01T04:20:20;8.60;62.90
418;DHT22;49;48.530;9.200;2023-02-01T04:22:50;8.60;67.20
418;DHT22;49;48.530;9.200;2023-02-01T04:25:18;9.00;64.60
418;DHT22;49;48.530;9.200;2023-02-01T04:27:48;9.20;62.30
418;DHT22;49;48.530;9.200;2023-02-01T04:30:17;8.80;64.00
418;DHT22;49;48.530;9.200;2023-02-01T04:32:45;8.60;65.60
418;DHT22;49;48.530;9.200;2023-02-01T04:35:12;8.50;67.30
418;DHT22;49;48.530;9.200;2023-02-01T04:37:44;8.90;66.50
418;DHT22;49;48.530;9.200;2023-02-01T04:40:12;8.80;67.10
418;DHT22;49;48.530;9.200;2023-02-01T04:42:40;9.30;63.50
418;DHT22;49;48.530;9.200;2023-02-01T04:45:10;9.20;63.40
418;DHT22;49;48.530;9.200;2023-02-01T04:47:37;8.80;65.80
418;DHT22;49;48.530;9.200;2023-02-01T04:50:05;9.00;65.70
418;DHT22;49;48.530;9.200;2023-02-01T04:52:35;9.00;65.40
418;DHT22;49;48.530;9.200;2023-02-01T04:55:03;8.90;64.30
418;DHT22;49;48.530;9.200;2023-02-01T04:57:32;8.50;68.10
418;DHT22;49;48.530;9.200;2023-02-01T05:00:00;8.40;71.20
418;DHT22;49;48.530;9.200;2023-02-01T05:02:28;8.60;70.00
418;DHT22;49;48.530;9.200;2023-02-01T05:04:57;8.50;69.40
418;DHT22;49;48.530;9.200;2023-02-01T05:07:25;8.40;71.20
418;DHT22;49;48.530;9.200;2023-02-01T05:09:52;8.60;74.00
418;DHT22;49;48.530;9.200;2023-02-01T05:12:19;8.30;72.60
418;DHT22;49;48.530;9.200;2023-02-01T05:15:04;8.40;72.60
418;DHT22;49;48.530;9.200;2023-02-01T05:17:33;8.90;69.40
418;DHT22;49;48.530;9.200;2023-02-01T05:20:01;8.80;68.00
418;DHT22;49;48.530;9.200;2023-02-01T05:22:28;8.60;67.70
418;DHT22;49;48.530;9.200;2023-02-01T05:24:55;8.70;69.40
418;DHT22;49;48.530;9.200;2023-02-01T05:27:22;8.50;69.40
418;DHT22;49;48.530;9.200;2023-02-01T05:29:49;8.50;73.50
418;DHT22;49;48.530;9.200;2023-02-01T05:32:16;8.30;70.70
418;DHT22;49;48.530;9.200;2023-02-01T05:34:45;8.30;72.90
418;DHT22;49;48.530;9.200;2023-02-01T05:37:12;8.80;72.30
418;DHT22;49;48.530;9.200;2023-02-01T05:39:40;9.20;66.70
418;DHT22;49;48.530;9.200;2023-02-01T05:42:07;9.20;63.40
418;DHT22;49;48.530;9.200;2023-02-01T05:44:34;9.40;65.50
418;DHT22;49;48.530;9.200;2023-02-01T05:47:01;9.40;63.60
418;DHT22;49;48.530;9.200;2023-02-01T05:49:28;9.20;64.60
418;DHT22;49;48.530;9.200;2023-02-01T05:52:00;9.40;63.70
418;DHT22;49;48.530;9.200;2023-02-01T05:54:28;9.30;62.80
418;DHT22;49;48.530;9.200;2023-02-01T05:56:55;9.20;63.40
418;DHT22;49;48.530;9.200;2023-02-01T05:59:22;9.20;63.40
418;DHT22;49;48.530;9.200;2023-02-01T06:01:50;9.40;63.60
418;DHT22;49;48.530;9.200;2023-02-01T06:04:18;9.60;63.80
418;DHT22;49;48.530;9.200;2023-02-01T06:06:45;9.70;63.80
418;DHT22;49;48.530;9.200;2023-02-01T06:09:17;9.90;57.50
418;DHT22;49;48.530;9.200;2023-02-01T06:11:44;9.70;58.60
418;DHT22;49;48.530;9.200;2023-02-01T06:14:12;9.50;60.60
418;DHT22;49;48.530;9.200;2023-02-01T06:16:41;9.60;63.80
418;DHT22;49;48.530;9.200;2023-02-01T06:19:11;9.40;61.30
418;DHT22;49;48.530;9.200;2023-02-01T06:21:40;9.10;67.20
418;DHT22;49;48.530;9.200;2023-02-01T06:24:08;9.30;62.80
418;DHT22;49;48.530;9.200;2023-02-01T06:26:38;9.00;64.80
418;DHT22;49;48.530;9.200;2023-02-01T06:29:06;8.90;65.80
418;DHT22;49;48.530;9.200;2023-02-01T06:31:39;9.30;66.40
418;DHT22;49;48.530;9.200;2023-02-01T06:34:08;9.60;65.90
418;DHT22;49;48.530;9.200;2023-02-01T06:36:36;9.70;61.00
418;DHT22;49;48.530;9.200;2023-02-01T06:39:04;9.80;59.10
418;DHT22;49;48.530;9.200;2023-02-01T06:41:31;9.60;63.30
418;DHT22;49;48.530;9.200;2023-02-01T06:44:01;9.80;60.60
418;DHT22;49;48.530;9.200;2023-02-01T06:46:28;9.80;60.00
418;DHT22;49;48.530;9.200;2023-02-01T06:48:55;9.80;62.60
418;DHT22;49;48.530;9.200;2023-02-01T06:51:24;9.50;65.90
418;DHT22;49;48.530;9.200;2023-02-01T06:53:51;9.40;65.70
418;DHT22;49;48.530;9.200;2023-02-01T06:56:18;10.00;64.50
418;DHT22;49;48.530;9.200;2023-02-01T06:58:46;9.80;65.00
418;DHT22;49;48.530;9.200;2023-02-01T07:01:15;9.70;63.00
418;DHT22;49;48.530;9.200;2023-02-01T07:03:42;9.10;66.90
418;DHT22;49;48.530;9.200;2023-02-01T07:06:09;8.60;72.90
418;DHT22;49;48.530;9.200;2023-02-01T07:08:37;8.10;78.90
418;DHT22;49;48.530;9.200;2023-02-01T07:11:05;8.10;82.80
418;DHT22;49;48.530;9.200;2023-02-01T07:13:33;7.90;82.60
418;DHT22;49;48.530;9.200;2023-02-01T07:16:00;7.80;84.70
418;DHT22;49;48.530;9.200;2023-02-01T07:18:30;7.70;87.40
418;DHT22;49;48.530;9.200;2023-02-01T07:20:58;8.10;85.90
418;DHT22;49;48.530;9.200;2023-02-01T07:23:26;7.90;83.80
418;DHT22;49;48.530;9.200;2023-02-01T07:25:54;8.20;84.30
418;DHT22;49;48.530;9.200;2023-02-01T07:28:21;7.90;85.20
418;DHT22;49;48.530;9.200;2023-02-01T07:30:48;8.40;86.20
418;DHT22;49;48.530;9.200;2023-02-01T07:33:18;9.00;77.70
418;DHT22;49;48.530;9.200;2023-02-01T07:35:49;9.20;75.90
418;DHT22;49;48.530;9.200;2023-02-01T07:38:17;9.30;77.00
418;DHT22;49;48.530;9.200;2023-02-01T07:40:45;8.90;77.90
418;DHT22;49;48.530;9.200;2023-02-01T07:43:12;8.90;76.50
418;DHT22;49;48.530;9.200;2023-02-01T07:45:39;8.70;78.10
418;DHT22;49;48.530;9.200;2023-02-01T07:48:06;8.40;79.80
418;DHT22;49;48.530;9.200;2023-02-01T07:50:33;8.00;81.60
418;DHT22;49;48.530;9.200;2023-02-01T07:53:02;8.20;82.70
418;DHT22;49;48.530;9.200;2023-02-01T07:55:29;8.30;82.40
418;DHT22;49;48.530;9.200;2023-02-01T07:57:57;8.30;85.70
418;DHT22;49;48.530;9.200;2023-02-01T08:00:25;8.30;82.70
418;DHT22;49;48.530;9.200;2023-02-01T08:03:09;8.50;78.20
418;DHT22;49;48.530;9.200;2023-02-01T08:05:36;8.60;82.40
418;DHT22;49;48.530;9.200;2023-02-01T08:08:06;8.90;77.20
418;DHT22;49;48.530;9.200;2023-02-01T08:10:33;9.00;75.90
418;DHT22;49;48.530;9.200;2023-02-01T08:13:02;9.10;74.90
418;DHT22;49;48.530;9.200;2023-02-01T08:15:29;8.90;75.60
418;DHT22;49;48.530;9.200;2023-02-01T08:17:57;9.20;74.30
418;DHT22;49;48.530;9.200;2023-02-01T08:20:25;9.50;72.70
418;DHT22;49;48.530;9.200;2023-02-01T08:22:53;9.50;72.10
418;DHT22;49;48.530;9.200;2023-02-01T08:25:22;9.20;70.20
418;DHT22;49;48.530;9.200;2023-02-01T08:27:50;9.20;74.10
418;DHT22;49;48.530;9.200;2023-02-01T08:30:19;9.30;75.90
418;DHT22;49;48.530;9.200;2023-02-01T08:32:46;9.40;70.40
418;DHT22;49;48.530;9.200;2023-02-01T08:35:13;9.00;72.50
418;DHT22;49;48.530;9.200;2023-02-01T08:37:40;8.70;73.30
418;DHT22;49;48.530;9.200;2023-02-01T08:40:09;8.90;74.00
418;DHT22;49;48.530;9.200;2023-02-01T08:42:37;8.60;76.30
418;DHT22;49;48.530;9.200;2023-02-01T08:45:21;8.80;74.50
418;DHT22;49;48.530;9.200;2023-02-01T08:47:49;9.00;75.00
418;DHT22;49;48.530;9.200;2023-02-01T08:50:17;9.20;73.60
418;DHT22;49;48.530;9.200;2023-02-01T08:52:44;9.20;70.60
418;DHT22;49;48.530;9.200;2023-02-01T08:55:12;9.20;72.40
418;DHT22;49;48.530;9.200;2023-02-01T08:57:41;9.30;68.50
418;DHT22;49;48.530;9.200;2023-02-01T09:00:13;9.30;69.80
418;DHT22;49;48.530;9.200;2023-02-01T09:02:41;9.50;68.60
418;DHT22;49;48.530;9.200;2023-02-01T09:05:08;9.20;71.60
418;DHT22;49;48.530;9.200;2023-02-01T09:07:36;9.70;67.60
418;DHT22;49;48.530;9.200;2023-02-01T09:10:04;9.80;70.50
418;DHT22;49;48.530;9.200;2023-02-01T09:12:33;9.70;64.40
418;DHT22;49;48.530;9.200;2023-02-01T09:15:02;9.50;67.40
418;DHT22;49;48.530;9.200;2023-02-01T09:17:32;9.00;67.50
418;DHT22;49;48.530;9.200;2023-02-01T09:19:59;9.00;71.00
418;DHT22;49;48.530;9.200;2023-02-01T09:22:26;9.30;69.60
418;DHT22;49;48.530;9.200;2023-02-01T09:24:53;9.80;67.20
418;DHT22;49;48.530;9.200;2023-02-01T09:27:21;9.50;67.60
418;DHT22;49;48.530;9.200;2023-02-01T09:29:48;9.40;66.60
418;DHT22;49;48.530;9.200;2023-02-01T09:32:19;9.40;67.40
418;DHT22;49;48.530;9.200;2023-02-01T09:34:47;9.10;65.20
418;DHT22;49;48.530;9.200;2023-02-01T09:37:14;8.90;67.30
418;DHT22;49;48.530;9.200;2023-02-01T09:39:42;9.10;73.10
418;DHT22;49;48.530;9.200;2023-02-01T09:42:19;9.60;69.10
418;DHT22;49;48.530;9.200;2023-02-01T09:45:04;9.70;63.80
418;DHT22;49;48.530;9.200;2023-02-01T09:47:35;9.80;61.30
418;DHT22;49;48.530;9.200;2023-02-01T09:50:09;9.70;66.90
418;DHT22;49;48.530;9.200;2023-02-01T09:52:44;9.80;60.50
418;DHT22;49;48.530;9.200;2023-02-01T09:55:16;9.90;59.40
418;DHT22;49;48.530;9.200;2023-02-01T09:57:49;10.00;65.80
418;DHT22;49;48.530;9.200;2023-02-01T10:00:22;10.10;56.80
418;DHT22;49;48.530;9.200;2023-02-01T10:02:55;9.90;57.20
418;DHT22;49;48.530;9.200;2023-02-01T10:05:38;9.50;61.80
418;DHT22;49;48.530;9.200;2023-02-01T10:08:17;9.70;63.80
418;DHT22;49;48.530;9.200;2023-02-01T10:10:48;10.10;54.30
418;DHT22;49;48.530;9.200;2023-02-01T10:13:25;10.20;57.10
418;DHT22;49;48.530;9.200;2023-02-01T10:16:16;9.90;56.70
418;DHT22;49;48.530;9.200;2023-02-01T10:19:00;10.10;57.80
418;DHT22;49;48.530;9.200;2023-02-01T10:21:41;10.40;53.80
418;DHT22;49;48.530;9.200;2023-02-01T10:24:20;10.40;57.80
418;DHT22;49;48.530;9.200;2023-02-01T10:26:55;10.00;53.20
418;DHT22;49;48.530;9.200;2023-02-01T10:29:27;9.50;58.90
418;DHT22;49;48.530;9.200;2023-02-01T10:31:57;9.70;59.00
418;DHT22;49;48.530;9.200;2023-02-01T10:34:27;10.20;53.50
418;DHT22;49;48.530;9.200;2023-02-01T10:37:00;10.50;48.80
418;DHT22;49;48.530;9.200;2023-02-01T10:39:27;10.50;47.50
418;DHT22;49;48.530;9.200;2023-02-01T10:41:55;10.30;48.10
418;DHT22;49;48.530;9.200;2023-02-01T10:44:26;10.80;50.80
418;DHT22;49;48.530;9.200;2023-02-01T10:46:53;10.70;43.20
418;DHT22;49;48.530;9.200;2023-02-01T10:49:26;10.30;47.60
418;DHT22;49;48.530;9.200;2023-02-01T10:52:01;10.50;48.80
418;DHT22;49;48.530;9.200;2023-02-01T10:54:34;10.60;50.10
418;DHT22;49;48.530;9.200;2023-02-01T10:57:01;10.70;48.00
418;DHT22;49;48.530;9.200;2023-02-01T10:59:29;10.70;44.30
418;DHT22;49;48.530;9.200;2023-02-01T11:02:00;10.40;45.60
418;DHT22;49;48.530;9.200;2023-02-01T11:04:33;10.60;43.90
418;DHT22;49;48.530;9.200;2023-02-01T11:07:06;10.90;47.40
418;DHT22;49;48.530;9.200;2023-02-01T11:09:38;11.20;45.60
418;DHT22;49;48.530;9.200;2023-02-01T11:12:22;10.90;39.40
418;DHT22;49;48.530;9.200;2023-02-01T11:14:50;10.80;41.60
418;DHT22;49;48.530;9.200;2023-02-01T11:17:24;10.20;42.40
418;DHT22;49;48.530;9.200;2023-02-01T11:20:03;10.10;43.30
418;DHT22;49;48.530;9.200;2023-02-01T11:22:31;10.00;49.50
418;DHT22;49;48.530;9.200;2023-02-01T11:24:59;10.20;50.50
418;DHT22;49;48.530;9.200;2023-02-01T11:27:28;10.10;49.60
418;DHT22;49;48.530;9.200;2023-02-01T11:29:57;10.50;42.90
418;DHT22;49;48.530;9.200;2023-02-01T11:32:28;10.70;41.80
418;DHT22;49;48.530;9.200;2023-02-01T11:35:01;10.60;40.10
418;DHT22;49;48.530;9.200;2023-02-01T11:37:31;10.50;42.80
418;DHT22;49;48.530;9.200;2023-02-01T11:40:01;10.50;50.00
418;DHT22;49;48.530;9.200;2023-02-01T11:42:29;10.70;43.20
418;DHT22;49;48.530;9.200;2023-02-01T11:45:18;10.80;41.60
418;DHT22;49;48.530;9.200;2023-02-01T11:47:45;10.60;44.80
418;DHT22;49;48.530;9.200;2023-02-01T11:50:16;10.60;43.10
418;DHT22;49;48.530;9.200;2023-02-01T11:55:55;10.80;43.30
418;DHT22;49;48.530;9.200;2023-02-01T11:58:47;10.50;42.20
418;DHT22;49;48.530;9.200;2023-02-01T12:01:35;10.80;46.20
418;DHT22;49;48.530;9.200;2023-02-01T12:07:16;10.70;45.30
418;DHT22;49;48.530;9.200;2023-02-01T12:09:54;10.40;41.30
418;DHT22;49;48.530;9.200;2023-02-01T12:12:25;10.50;42.10
418;DHT22;49;48.530;9.200;2023-02-01T12:15:22;10.30;47.00
418;DHT22;49;48.530;9.200;2023-02-01T12:18:14;10.30;44.30
418;DHT22;49;48.530;9.200;2023-02-01T12:20:59;10.20;45.20
418;DHT22;49;48.530;9.200;2023-02-01T12:23:41;9.90;49.40
418;DHT22;49;48.530;9.200;2023-02-01T12:29:53;10.50;42.10
418;DHT22;49;48.530;9.200;2023-02-01T12:32:39;10.60;46.50
418;DHT22;49;48.530;9.200;2023-02-01T12:35:26;10.70;45.10
418;DHT22;49;48.530;9.200;2023-02-01T12:38:04;10.70;40.80
418;DHT22;49;48.530;9.200;2023-02-01T12:40:47;10.50;38.60
418;DHT22;49;48.530;9.200;2023-02-01T12:43:20;10.50;41.20
418;DHT22;49;48.530;9.200;2023-02-01T12:45:55;10.20;37.80
418;DHT22;49;48.530;9.200;2023-02-01T12:48:29;9.90;43.10
418;DHT22;49;48.530;9.200;2023-02-01T12:51:01;10.30;40.50
418;DHT22;49;48.530;9.200;2023-02-01T12:53:37;10.40;40.00
418;DHT22;49;48.530;9.200;2023-02-01T12:56:16;10.70;43.20
418;DHT22;49;48.530;9.200;2023-02-01T12:58:49;11.10;41.80
418;DHT22;49;48.530;9.200;2023-02-01T13:01:21;11.00;38.00
418;DHT22;49;48.530;9.200;2023-02-01T13:03:54;10.70;44.60
418;DHT22;49;48.530;9.200;2023-02-01T13:06:27;11.20;38.90
418;DHT22;49;48.530;9.200;2023-02-01T13:09:00;10.90;32.80
418;DHT22;49;48.530;9.200;2023-02-01T13:11:31;10.40;41.60
418;DHT22;49;48.530;9.200;2023-02-01T13:14:03;10.40;35.80
418;DHT22;49;48.530;9.200;2023-02-01T13:16:35;10.80;42.00
418;DHT22;49;48.530;9.200;2023-02-01T13:19:09;11.30;42.40
418;DHT22;49;48.530;9.200;2023-02-01T13:21:41;11.30;32.40
418;DHT22;49;48.530;9.200;2023-02-01T13:24:23;10.90;32.50
418;DHT22;49;48.530;9.200;2023-02-01T13:26:54;10.90;32.10
418;DHT22;49;48.530;9.200;2023-02-01T13:29:23;11.10;36.40
418;DHT22;49;48.530;9.200;2023-02-01T13:32:12;11.20;42.70
418;DHT22;49;48.530;9.200;2023-02-01T13:35:02;11.20;34.70
418;DHT22;49;48.530;9.200;2023-02-01T13:37:42;10.90;36.20
418;DHT22;49;48.530;9.200;2023-02-01T13:40:23;11.30;34.60
418;DHT22;49;48.530;9.200;2023-02-01T13:42:57;11.40;34.30
418;DHT22;49;48.530;9.200;2023-02-01T13:45:26;11.60;36.30
418;DHT22;49;48.530;9.200;2023-02-01T13:47:58;11.40;34.00
418;DHT22;49;48.530;9.200;2023-02-01T13:50:29;11.00;42.80
418;DHT22;49;48.530;9.200;2023-02-01T13:53:01;11.10;41.90
418;DHT22;49;48.530;9.200;2023-02-01T13:55:34;11.00;37.80
418;DHT22;49;48.530;9.200;2023-02-01T13:58:13;11.40;36.70
418;DHT22;49;48.530;9.200;2023-02-01T14:00:42;10.60;35.90
418;DHT22;49;48.530;9.200;2023-02-01T14:03:15;10.60;40.80
418;DHT22;49;48.530;9.200;2023-02-01T14:06:00;10.90;35.70
418;DHT22;49;48.530;9.200;2023-02-01T14:08:43;11.00;35.30
418;DHT22;49;48.530;9.200;2023-02-01T14:11:36;11.00;39.30
418;DHT22;49;48.530;9.200;2023-02-01T14:17:36;10.50;38.40
418;DHT22;49;48.530;9.200;2023-02-01T14:23:16;10.00;40.30
418;DHT22;49;48.530;9.200;2023-02-01T14:25:44;10.40;42.90
418;DHT22;49;48.530;9.200;2023-02-01T14:28:25;10.50;37.50
418;DHT22;49;48.530;9.200;2023-02-01T14:30:56;10.30;38.10
418;DHT22;49;48.530;9.200;2023-02-01T14:33:27;10.20;38.90
418;DHT22;49;48.530;9.200;2023-02-01T14:36:06;10.60;44.20
418;DHT22;49;48.530;9.200;2023-02-01T14:38:35;10.70;46.80
418;DHT22;49;48.530;9.200;2023-02-01T14:41:23;10.60;43.10
418;DHT22;49;48.530;9.200;2023-02-01T14:44:25;10.60;39.90
418;DHT22;49;48.530;9.200;2023-02-01T14:50:25;11.40;36.80
418;DHT22;49;48.530;9.200;2023-02-01T14:53:09;11.00;38.00
418;DHT22;49;48.530;9.200;2023-02-01T14:55:41;10.20;37.50
418;DHT22;49;48.530;9.200;2023-02-01T14:58:16;10.10;43.00
418;DHT22;49;48.530;9.200;2023-02-01T15:00:51;10.40;40.60
418;DHT22;49;48.530;9.200;2023-02-01T15:03:41;10.00;41.40
418;DHT22;49;48.530;9.200;2023-02-01T15:06:29;10.10;40.20
418;DHT22;49;48.530;9.200;2023-02-01T15:09:00;10.20;41.30
418;DHT22;49;48.530;9.200;2023-02-01T15:11:28;10.40;45.90
418;DHT22;49;48.530;9.200;2023-02-01T15:13:55;10.50;38.80
418;DHT22;49;48.530;9.200;2023-02-01T15:16:25;10.80;37.80
418;DHT22;49;48.530;9.200;2023-02-01T15:19:07;10.30;36.80
418;DHT22;49;48.530;9.200;2023-02-01T15:21:43;10.50;36.00
418;DHT22;49;48.530;9.200;2023-02-01T15:24:12;10.50;44.50
418;DHT22;49;48.530;9.200;2023-02-01T15:26:39;10.30;38.20
418;DHT22;49;48.530;9.200;2023-02-01T15:29:10;10.50;38.00
418;DHT22;49;48.530;9.200;2023-02-01T15:31:40;10.70;43.30
418;DHT22;49;48.530;9.200;2023-02-01T15:34:08;11.00;37.80
418;DHT22;49;48.530;9.200;2023-02-01T15:36:35;11.00;36.30
418;DHT22;49;48.530;9.200;2023-02-01T15:39:20;10.80;41.90
418;DHT22;49;48.530;9.200;2023-02-01T15:41:53;10.60;36.00
418;DHT22;49;48.530;9.200;2023-02-01T15:44:29;10.60;36.00
418;DHT22;49;48.530;9.200;2023-02-01T15:46:59;10.30;40.30
418;DHT22;49;48.530;9.200;2023-02-01T15:49:29;11.00;39.10
418;DHT22;49;48.530;9.200;2023-02-01T15:51:59;10.90;44.20
418;DHT22;49;48.530;9.200;2023-02-01T15:54:28;10.90;36.30
418;DHT22;49;48.530;9.200;2023-02-01T15:56:59;10.90;35.40
418;DHT22;49;48.530;9.200;2023-02-01T15:59:31;10.80;35.90
418;DHT22;49;48.530;9.200;2023-02-01T16:02:01;10.70;36.80
418;DHT22;49;48.530;9.200;2023-02-01T16:04:29;10.60;44.60
418;DHT22;49;48.530;9.200;2023-02-01T16:06:59;10.70;42.00
418;DHT22;49;48.530;9.200;2023-02-01T16:09:37;10.90;38.10
418;DHT22;49;48.530;9.200;2023-02-01T16:12:31;10.70;40.90
418;DHT22;49;48.530;9.200;2023-02-01T16:15:00;10.80;38.60
418;DHT22;49;48.530;9.200;2023-02-01T16:17:30;11.00;36.30
418;DHT22;49;48.530;9.200;2023-02-01T16:19:58;10.90;38.40
418;DHT22;49;48.530;9.200;2023-02-01T16:22:25;11.00;36.50
418;DHT22;49;48.530;9.200;2023-02-01T16:24:52;10.50;36.60
418;DHT22;49;48.530;9.200;2023-02-01T16:27:19;10.70;35.50
418;DHT22;49;48.530;9.200;2023-02-01T16:29:47;10.40;37.20
418;DHT22;49;48.530;9.200;2023-02-01T16:32:17;10.50;36.90
418;DHT22;49;48.530;9.200;2023-02-01T16:34:47;10.50;38.30
418;DHT22;49;48.530;9.200;2023-02-01T16:37:16;10.40;39.20
418;DHT22;49;48.530;9.200;2023-02-01T16:39:44;10.90;39.00
418;DHT22;49;48.530;9.200;2023-02-01T16:42:12;11.20;40.80
418;DHT22;49;48.530;9.200;2023-02-01T16:44:40;10.90;33.40
418;DHT22;49;48.530;9.200;2023-02-01T16:47:12;10.50;39.60
418;DHT22;49;48.530;9.200;2023-02-01T16:49:41;10.40;38.50
418;DHT22;49;48.530;9.200;2023-02-01T16:52:14;10.40;41.40
418;DHT22;49;48.530;9.200;2023-02-01T16:54:42;10.50;44.50
418;DHT22;49;48.530;9.200;2023-02-01T16:57:11;10.70;37.40
418;DHT22;49;48.530;9.200;2023-02-01T16:59:39;10.50;33.90
418;DHT22;49;48.530;9.200;2023-02-01T17:02:11;9.80;38.30
418;DHT22;49;48.530;9.200;2023-02-01T17:04:38;9.70;43.80
418;DHT22;49;48.530;9.200;2023-02-01T17:07:05;9.60;38.90
418;DHT22;49;48.530;9.200;2023-02-01T17:09:36;9.70;41.70
418;DHT22;49;48.530;9.200;2023-02-01T17:12:04;9.80;40.50
418;DHT22;49;48.530;9.200;2023-02-01T17:14:35;10.20;37.30
418;DHT22;49;48.530;9.200;2023-02-01T17:17:04;10.50;34.70
418;DHT22;49;48.530;9.200;2023-02-01T17:19:32;10.60;38.80
418;DHT22;49;48.530;9.200;2023-02-01T17:21:59;10.40;42.60
418;DHT22;49;48.530;9.200;2023-02-01T17:24:29;10.40;42.20
418;DHT22;49;48.530;9.200;2023-02-01T17:26:59;10.50;49.70
418;DHT22;49;48.530;9.200;2023-02-01T17:29:29;11.10;43.30
418;DHT22;49;48.530;9.200;2023-02-01T17:31:56;11.20;34.50
418;DHT22;49;48.530;9.200;2023-02-01T17:34:25;10.50;33.70
418;DHT22;49;48.530;9.200;2023-02-01T17:36:53;10.70;40.70
418;DHT22;49;48.530;9.200;2023-02-01T17:39:21;10.50;35.80
418;DHT22;49;48.530;9.200;2023-02-01T17:42:11;10.60;36.50
418;DHT22;49;48.530;9.200;2023-02-01T17:44:38;9.90;39.90
418;DHT22;49;48.530;9.200;2023-02-01T17:47:05;9.30;44.20
418;DHT22;49;48.530;9.200;2023-02-01T17:49:32;9.00;49.00
418;DHT22;49;48.530;9.200;2023-02-01T17:52:00;9.00;46.70
418;DHT22;49;48.530;9.200;2023-02-01T17:54:28;9.00;49.60
418;DHT22;49;48.530;9.200;2023-02-01T17:56:55;9.60;48.30
418;DHT22;49;48.530;9.200;2023-02-01T17:59:27;9.50;45.10
418;DHT22;49;48.530;9.200;2023-02-01T18:01:55;9.30;45.40
418;DHT22;49;48.530;9.200;2023-02-01T18:04:25;9.00;47.30